createdAt,value
2022-08-30T00:00:40.647Z,21.50
2022-08-30T00:04:42.672Z,21.80
2022-08-30T00:08:45.995Z,22.00
2022-08-30T00:12:49.010Z,21.10
2022-08-30T00:16:50.878Z,21.10
2022-08-30T00:20:52.683Z,21.60
2022-08-30T00:24:55.037Z,21.50
2022-08-30T00:28:56.846Z,21.30
2022-08-30T00:32:59.241Z,20.90
2022-08-30T00:37:01.306Z,19.90
2022-08-30T00:41:03.281Z,20.20
2022-08-30T00:45:25.956Z,20.10
2022-08-30T00:49:29.613Z,20.60
2022-08-30T00:53:34.610Z,20.60
2022-08-30T00:57:36.570Z,20.70
2022-08-30T01:01:38.773Z,20.40
2022-08-30T01:05:41.374Z,20.80
2022-08-30T01:09:43.503Z,20.90
2022-08-30T01:13:47.224Z,20.80
2022-08-30T01:17:49.131Z,21.00
2022-08-30T01:21:59.410Z,20.60
2022-08-30T01:26:03.744Z,20.80
2022-08-30T01:30:07.205Z,21.30
2022-08-30T01:34:09.113Z,21.00
2022-08-30T01:38:12.717Z,20.70
2022-08-30T01:42:17.435Z,20.10
2022-08-30T01:46:21.661Z,20.40
2022-08-30T01:50:23.458Z,20.00
2022-08-30T01:54:27.488Z,20.30
2022-08-30T01:58:39.892Z,20.60
2022-08-30T02:02:42.047Z,19.90
2022-08-30T02:06:44.646Z,19.60
2022-08-30T02:10:46.385Z,19.70
2022-08-30T02:14:49.394Z,19.90
2022-08-30T02:18:53.194Z,19.80
2022-08-30T02:22:56.730Z,19.70
2022-08-30T02:27:01.516Z,19.90
2022-08-30T02:31:03.351Z,20.20
2022-08-30T02:35:05.541Z,20.10
2022-08-30T02:39:08.357Z,19.50
2022-08-30T02:43:10.053Z,19.60
2022-08-30T02:47:12.459Z,20.10
2022-08-30T02:51:15.025Z,20.30
2022-08-30T02:55:17.516Z,20.20
2022-08-30T02:59:19.470Z,19.60
2022-08-30T03:03:21.721Z,19.00
2022-08-30T03:07:23.521Z,18.60
2022-08-30T03:11:25.307Z,19.10
2022-08-30T03:15:27.354Z,18.90
2022-08-30T03:19:29.568Z,19.10
2022-08-30T03:23:31.679Z,19.00
2022-08-30T03:27:33.930Z,18.60
2022-08-30T03:31:40.636Z,18.70
2022-08-30T03:35:48.053Z,19.20
2022-08-30T03:39:49.774Z,19.30
2022-08-30T03:43:52.379Z,19.30
2022-08-30T03:48:03.007Z,17.90
2022-08-30T03:52:05.277Z,18.10
2022-08-30T03:56:07.273Z,18.10
2022-08-30T04:00:09.690Z,18.20
2022-08-30T04:04:12.127Z,18.50
2022-08-30T04:08:13.881Z,18.80
2022-08-30T04:12:20.491Z,18.80
2022-08-30T04:16:25.371Z,18.00
2022-08-30T04:20:27.377Z,17.40
2022-08-30T04:24:29.142Z,18.50
2022-08-30T04:28:31.011Z,19.10
2022-08-30T04:32:35.831Z,19.10
2022-08-30T04:36:37.817Z,19.50
2022-08-30T04:40:45.748Z,19.50
2022-08-30T04:44:47.541Z,19.50
2022-08-30T04:48:49.445Z,19.40
2022-08-30T04:52:51.228Z,19.40
2022-08-30T04:56:52.949Z,19.70
2022-08-30T05:00:54.794Z,19.80
2022-08-30T05:05:15.070Z,18.70
2022-08-30T05:09:17.290Z,19.40
2022-08-30T05:13:21.316Z,20.00
2022-08-30T05:17:39.857Z,19.90
2022-08-30T05:21:41.783Z,19.60
2022-08-30T05:25:43.642Z,19.70
2022-08-30T05:29:45.656Z,19.90
2022-08-30T05:33:48.782Z,20.20
2022-08-30T05:37:50.970Z,19.50
2022-08-30T05:41:57.415Z,19.70
2022-08-30T05:46:05.352Z,19.30
2022-08-30T05:50:08.246Z,19.90
2022-08-30T05:54:11.777Z,20.50
2022-08-30T05:58:13.609Z,20.80
2022-08-30T06:02:15.460Z,21.00
2022-08-30T06:06:17.909Z,21.10
2022-08-30T06:10:19.826Z,21.20
2022-08-30T06:14:22.003Z,21.20
2022-08-30T06:18:28.481Z,20.40
2022-08-30T06:22:30.662Z,19.90
2022-08-30T06:26:36.989Z,20.70
2022-08-30T06:30:40.846Z,21.20
2022-08-30T06:34:42.617Z,20.70
2022-08-30T06:38:45.236Z,20.80
2022-08-30T06:42:47.158Z,21.40
2022-08-30T06:46:48.983Z,21.10
2022-08-30T06:50:54.773Z,20.90
2022-08-30T06:54:58.934Z,21.30
2022-08-30T06:59:01.132Z,21.30
2022-08-30T07:03:02.911Z,21.20
2022-08-30T07:07:05.380Z,21.70
2022-08-30T07:11:08.247Z,22.40
2022-08-30T07:15:10.344Z,22.80
2022-08-30T07:19:20.494Z,22.90
2022-08-30T07:23:24.049Z,23.10
2022-08-30T07:27:26.046Z,23.10
2022-08-30T07:31:28.481Z,23.40
2022-08-30T07:35:31.958Z,23.40
2022-08-30T07:39:37.921Z,23.80
2022-08-30T07:43:41.542Z,23.80
2022-08-30T07:47:43.394Z,24.20
2022-08-30T07:51:45.191Z,23.60
2022-08-30T07:55:46.998Z,24.10
2022-08-30T07:59:49.159Z,24.50
2022-08-30T08:03:51.186Z,24.70
2022-08-30T08:07:52.901Z,24.80
2022-08-30T08:11:55.407Z,24.90
2022-08-30T08:15:57.185Z,24.60
2022-08-30T08:19:58.982Z,24.90
2022-08-30T08:24:00.759Z,25.10
2022-08-30T08:28:02.702Z,25.00
2022-08-30T08:32:05.294Z,25.10
2022-08-30T08:36:09.338Z,25.20
2022-08-30T08:40:16.953Z,25.10
2022-08-30T08:44:57.498Z,25.40
2022-08-30T08:49:04.834Z,24.80
2022-08-30T08:53:45.439Z,25.50
2022-08-30T08:57:48.263Z,25.70
2022-08-30T09:01:50.940Z,25.20
2022-08-30T09:05:54.834Z,25.80
2022-08-30T09:10:00.458Z,26.00
2022-08-30T09:14:02.442Z,26.00
2022-08-30T09:18:12.920Z,25.90
2022-08-30T09:22:26.568Z,26.10
2022-08-30T09:26:35.314Z,26.20
2022-08-30T09:30:37.689Z,26.40
2022-08-30T09:34:43.957Z,26.30
2022-08-30T09:38:46.063Z,26.40
2022-08-30T09:43:02.251Z,26.30
2022-08-30T09:47:04.525Z,26.40
2022-08-30T09:51:15.049Z,26.50
2022-08-30T09:55:44.069Z,26.80
2022-08-30T10:00:00.319Z,26.50
2022-08-30T10:04:16.986Z,26.30
2022-08-30T10:08:26.028Z,26.00
2022-08-30T10:12:57.226Z,26.80
2022-08-30T10:17:29.483Z,27.10
2022-08-30T10:21:49.131Z,26.60
2022-08-30T10:26:19.326Z,26.40
2022-08-30T10:30:23.072Z,26.30
2022-08-30T10:34:34.315Z,26.40
2022-08-30T10:38:51.638Z,26.80
2022-08-30T10:42:56.212Z,26.70
2022-08-30T10:47:31.625Z,27.10
2022-08-30T10:51:41.886Z,27.10
2022-08-30T10:55:53.565Z,27.00
2022-08-30T11:00:06.048Z,26.80
2022-08-30T11:04:14.413Z,27.40
2022-08-30T11:08:37.798Z,27.10
2022-08-30T11:13:04.790Z,27.30
2022-08-30T11:17:20.148Z,27.90
2022-08-30T11:21:38.408Z,27.80
2022-08-30T11:26:12.093Z,28.30
2022-08-30T11:30:27.011Z,27.90
2022-08-30T11:34:47.278Z,28.20
2022-08-30T11:38:48.969Z,28.10
2022-08-30T11:42:54.561Z,27.70
2022-08-30T11:47:01.903Z,28.10
2022-08-30T11:51:20.396Z,28.20
2022-08-30T11:55:37.296Z,28.20
2022-08-30T11:59:57.491Z,28.40
2022-08-30T12:04:02.741Z,28.40
2022-08-30T12:08:08.427Z,28.40
2022-08-30T12:12:32.592Z,28.30
2022-08-30T12:17:04.568Z,28.60
2022-08-30T12:21:22.052Z,28.50
2022-08-30T12:25:34.199Z,28.40
2022-08-30T12:29:37.014Z,28.60
2022-08-30T12:33:43.852Z,28.70
2022-08-30T12:38:05.902Z,28.70
2022-08-30T12:42:22.317Z,28.90
2022-08-30T12:46:24.579Z,29.10
2022-08-30T12:50:35.630Z,29.30
2022-08-30T12:54:40.614Z,29.30
2022-08-30T12:58:49.635Z,29.70
2022-08-30T13:02:54.469Z,29.70
2022-08-30T13:06:59.339Z,30.00
2022-08-30T13:11:09.137Z,29.90
2022-08-30T13:15:19.971Z,29.60
2022-08-30T13:19:34.733Z,29.70
2022-08-30T13:23:36.482Z,30.00
2022-08-30T13:27:39.894Z,29.80
2022-08-30T13:31:41.853Z,30.40
2022-08-30T13:35:45.817Z,30.20
2022-08-30T13:39:47.596Z,29.30
2022-08-30T13:48:14.018Z,29.50
2022-08-30T13:52:21.424Z,29.50
2022-08-30T13:56:25.187Z,29.70
2022-08-30T14:00:27.442Z,29.70
2022-08-30T14:04:29.622Z,29.70
2022-08-30T14:08:48.137Z,29.20
2022-08-30T14:12:53.048Z,29.40
2022-08-30T14:16:55.151Z,29.20
2022-08-30T14:20:57.384Z,29.00
2022-08-30T14:25:01.455Z,29.30
2022-08-30T14:29:09.390Z,29.30
2022-08-30T14:33:11.499Z,29.60
2022-08-30T14:37:15.566Z,29.50
2022-08-30T14:41:17.510Z,29.40
2022-08-30T14:45:19.665Z,29.50
2022-08-30T14:49:22.222Z,29.70
2022-08-30T14:53:25.151Z,29.30
2022-08-30T14:57:26.910Z,29.20
2022-08-30T15:01:30.415Z,29.00
2022-08-30T15:05:32.530Z,28.90
2022-08-30T15:09:34.885Z,29.50
2022-08-30T15:13:37.297Z,29.40
2022-08-30T15:17:39.145Z,28.50
2022-08-30T15:21:44.098Z,29.20
2022-08-30T15:25:45.925Z,29.40
2022-08-30T15:29:48.479Z,29.70
2022-08-30T15:33:50.977Z,29.00
2022-08-30T15:37:52.845Z,29.30
2022-08-30T15:42:00.321Z,29.40
2022-08-30T15:46:17.936Z,29.70
2022-08-30T15:50:20.238Z,29.20
2022-08-30T15:54:23.836Z,28.60
2022-08-30T15:58:25.648Z,28.40
2022-08-30T16:02:28.173Z,28.90
2022-08-30T16:06:34.850Z,29.20
2022-08-30T16:10:36.645Z,29.20
2022-08-30T16:14:38.517Z,29.40
2022-08-30T16:18:40.396Z,29.10
2022-08-30T16:22:43.646Z,29.40
2022-08-30T16:26:48.071Z,28.70
2022-08-30T16:30:50.152Z,28.60
2022-08-30T16:34:52.002Z,27.80
2022-08-30T16:38:58.010Z,27.40
2022-08-30T16:43:00.166Z,27.10
2022-08-30T16:47:02.284Z,27.40
2022-08-30T16:51:10.500Z,27.40
2022-08-30T16:55:13.715Z,27.60
2022-08-30T16:59:16.701Z,28.40
2022-08-30T17:03:18.923Z,28.30
2022-08-30T17:07:22.991Z,28.40
2022-08-30T17:11:24.951Z,28.10
2022-08-30T17:15:27.163Z,28.20
2022-08-30T17:19:30.410Z,28.30
2022-08-30T17:23:32.771Z,27.20
2022-08-30T17:27:34.997Z,26.70
2022-08-30T17:31:37.448Z,27.80
2022-08-30T17:35:39.904Z,27.50
2022-08-30T17:39:41.972Z,27.60
2022-08-30T17:43:44.370Z,27.80
2022-08-30T17:47:46.489Z,27.50
2022-08-30T17:51:56.333Z,27.70
2022-08-30T17:55:58.585Z,27.60
2022-08-30T18:00:00.895Z,27.10
2022-08-30T18:04:06.264Z,26.80
2022-08-30T18:08:08.671Z,26.30
2022-08-30T18:12:12.279Z,26.30
2022-08-30T18:16:14.127Z,25.90
2022-08-30T18:20:20.918Z,26.40
2022-08-30T18:24:25.436Z,26.40
2022-08-30T18:28:28.541Z,26.70
2022-08-30T18:32:36.151Z,26.80
2022-08-30T18:36:41.353Z,26.80
2022-08-30T18:40:44.197Z,26.70
2022-08-30T18:44:47.200Z,26.30
2022-08-30T18:48:49.396Z,26.40
2022-08-30T18:52:52.622Z,26.10
2022-08-30T18:56:57.747Z,26.10
2022-08-30T19:00:59.774Z,26.00
2022-08-30T19:05:01.518Z,25.70
2022-08-30T19:09:03.357Z,25.60
2022-08-30T19:13:11.069Z,25.60
2022-08-30T19:17:13.229Z,25.70
2022-08-30T19:21:15.087Z,25.90
2022-08-30T19:25:20.758Z,26.10
2022-08-30T19:29:22.532Z,25.80
2022-08-30T19:33:26.058Z,25.50
2022-08-30T19:37:28.294Z,25.60
2022-08-30T19:41:30.273Z,25.60
2022-08-30T19:45:32.186Z,25.60
2022-08-30T19:49:36.670Z,25.70
2022-08-30T19:53:38.870Z,25.60
2022-08-30T19:57:40.720Z,25.60
2022-08-30T20:01:42.492Z,25.20
2022-08-30T20:05:47.612Z,25.00
2022-08-30T20:09:52.083Z,25.20
2022-08-30T20:13:53.796Z,24.80
2022-08-30T20:18:06.101Z,24.20
2022-08-30T20:22:09.218Z,24.30
2022-08-30T20:26:12.323Z,24.70
2022-08-30T20:30:15.480Z,24.20
2022-08-30T20:34:17.290Z,23.80
2022-08-30T20:38:24.034Z,24.00
2022-08-30T20:42:26.073Z,24.10
2022-08-30T20:46:33.418Z,23.80
2022-08-30T20:50:38.774Z,23.80
2022-08-30T20:54:40.649Z,23.70
2022-08-30T20:58:42.549Z,23.50
2022-08-30T21:02:46.820Z,23.70
2022-08-30T21:06:50.135Z,24.00
2022-08-30T21:10:54.652Z,24.30
2022-08-30T21:14:56.423Z,24.40
2022-08-30T21:18:58.193Z,23.50
2022-08-30T21:23:00.279Z,23.20
2022-08-30T21:27:02.605Z,22.90
2022-08-30T21:31:17.018Z,22.90
2022-08-30T21:35:37.477Z,23.40
2022-08-30T21:39:39.185Z,23.00
2022-08-30T21:43:41.105Z,23.20
2022-08-30T21:47:43.196Z,23.50
2022-08-30T21:51:47.553Z,23.30
2022-08-30T21:55:49.273Z,23.40
2022-08-30T21:59:53.590Z,22.90
2022-08-30T22:03:58.685Z,22.50
2022-08-30T22:08:00.463Z,22.50
2022-08-30T22:12:03.504Z,23.10
2022-08-30T22:16:09.712Z,23.20
2022-08-30T22:20:12.040Z,23.30
2022-08-30T22:24:21.550Z,23.20
2022-08-30T22:28:23.403Z,22.80
2022-08-30T22:32:25.248Z,22.60
2022-08-30T22:36:32.713Z,22.60
2022-08-30T22:40:35.708Z,22.80
2022-08-30T22:44:37.494Z,23.00
2022-08-30T22:48:41.957Z,23.00
2022-08-30T22:52:44.084Z,23.30
2022-08-30T22:56:46.682Z,23.40
2022-08-30T23:00:54.775Z,23.00
2022-08-30T23:04:57.277Z,22.90
2022-08-30T23:08:59.113Z,22.90
2022-08-30T23:13:01.157Z,22.70
2022-08-30T23:17:03.121Z,23.10
2022-08-30T23:21:26.722Z,23.00
2022-08-30T23:25:51.967Z,23.00
2022-08-30T23:30:12.529Z,22.80
2022-08-30T23:34:32.887Z,22.70
2022-08-30T23:38:53.501Z,22.90
2022-08-30T23:43:13.875Z,22.70
2022-08-30T23:47:34.236Z,22.40
2022-08-30T23:51:56.542Z,22.90
2022-08-30T23:56:16.779Z,23.00
